Bonaire, Bonaire

11:21 AM AST on July 05, 2015 (GMT -0400)
Flamingo | | Change Station
CLOSE
Current Station
Airport
Location: Bonaire,
Elevation: 20 ft
Nearby Weather Stations

Elev 20 ft 12.13 °N, 68.28 °W | Updated 1 hour ago

Scattered Clouds
Scattered Clouds
86 °F
Feels Like 97 °F
N
25
Wind Variable Wind from NE

Today
High -- | Low -- °F
--% Chance of Precip.
Yesterday
High -- | Low -- °F
Precip. -- in
6:13 AM 7:02 PM
Waning Gibbous, 84% visible
Pressure 29.98 in
Visibility 6.2 miles
Clouds Scattered Clouds 1900 ft
Heat Index 97 °F
Dew Point 77 °F
Humidity 74%
Rainfall 0.00 in
Snow Depth Not available.
UV 9 out of 12
Pollen Not available.
Air Quality Not available.
Flu Activity Not available.
METAR TNCB 051400Z 05022KT 9999 SCT019 30/25 Q1015 NOSIG

More Conditions Fewer Conditions

Pressure 29.98 in
Visibility 6.2 miles
Clouds Scattered Clouds 1900 ft
Heat Index 97 °F
Dew Point 77 °F
Humidity 74%
Rainfall 0.00 in
Snow Depth Not available.
UV 9 out of 12
Pollen Not available.
Air Quality Not available.
Flu Activity Not available.
METAR TNCB 051400Z 05022KT 9999 SCT019 30/25 Q1015 NOSIG

More Conditions Fewer Conditions

10-Day Weather Forecast

×

Almanac

Astronomy

Jul. 05, 2015 Rise Set
Actual Time
Civil Twilight
Nautical Twilight
Astronomical Twilight
Moon
Length of Visible Light
Length of Day
Tomorrow will be .
, % of the Moon is Illuminated

Today's Extremes

Country Highs Country Lows

Community

WunderPhotos

Upload Photos

1,835,288 photos uploaded!

WunderBlogs® & News

Nearby

Air Quality

  Air Quality AQ Index Pollutant
Not available.

Snow Depth

Station Depth Elevation

Earthquake Activity

City Distance Mag. Time & Date
Minimum magnitude displayed is 2.5.

Coastal Water Temperatures

Place Temperature

Stations

Nearby Weather Stations

Station Location Temp. Windchill Dew Point Humidity Wind Precip. Elev Updated Type